Time;durP1;ratioP1;P1;durP2;ratioP2;P2;SDS_P1;SDS_P2;PMS_P1;PMS_P2;Temp;Humidity;BMP_temperature;BMP_pressure;BME280_temperature;BME280_humidity;BME280_pressure;Samples;Min_cycle;Max_cycle;Signal;HPM_P1;HPM_P2
2021/07/20 00:02:38;;;;;;;;;14.00;13.75;;;;;24.03;57.80;101739.53;4903301;28;45304;-81
2021/07/20 00:05:05;;;;;;;;;15.00;13.25;;;;;24.01;58.02;101738.81;4899417;29;45529;-81
2021/07/20 00:07:31;;;;;;;;;12.25;12.00;;;;;23.97;57.91;101742.69;4891865;29;45458;-81
2021/07/20 00:09:57;;;;;;;;;14.25;13.25;;;;;23.93;58.14;101742.06;4898837;28;45645;-86
2021/07/20 00:12:23;;;;;;;;;20.25;14.00;;;;;23.89;57.83;101735.22;4903704;28;47060;-86
2021/07/20 00:14:48;;;;;;;;;14.75;13.50;;;;;23.83;58.38;101733.84;4892591;28;45214;-86
2021/07/20 00:17:13;;;;;;;;;13.25;11.25;;;;;23.80;58.83;101737.63;4898054;28;45446;-86
2021/07/20 00:19:39;;;;;;;;;15.75;13.50;;;;;23.75;58.77;101731.75;4897514;29;46171;-87
2021/07/20 00:22:04;;;;;;;;;15.00;13.25;;;;;23.69;58.34;101722.31;4892602;28;45450;-87
2021/07/20 00:24:30;;;;;;;;;16.75;15.50;;;;;23.65;58.47;101723.53;4904506;28;45298;-91
2021/07/20 00:26:55;;;;;;;;;12.75;12.25;;;;;23.66;59.49;101735.09;4899652;28;45505;-89
2021/07/20 00:29:21;;;;;;;;;16.00;15.75;;;;;23.59;59.13;101726.63;4899487;28;45473;-94
2021/07/20 00:31:46;;;;;;;;;16.00;12.75;;;;;23.55;58.75;101717.97;4908654;28;45306;-91
2021/07/20 00:34:11;;;;;;;;;15.00;14.00;;;;;23.53;59.46;101721.75;4889929;29;45498;-94
2021/07/20 00:36:37;;;;;;;;;17.00;13.00;;;;;23.48;59.39;101716.69;4899117;29;45477;-94
2021/07/20 00:39:04;;;;;;;;;16.25;15.75;;;;;23.47;59.40;101720.31;4905093;29;46516;-96
2021/07/20 00:41:29;;;;;;;;;15.25;13.00;;;;;23.45;59.70;101725.81;4902459;29;45538;-86
2021/07/20 00:43:54;;;;;;;;;14.25;14.25;;;;;23.37;59.73;101715.63;4899943;29;45428;-85
2021/07/20 04:42:32;;;;;;;;;20.25;18.25;;;;;21.48;63.16;101759.38;5317523;23;45879;-81
2021/07/20 04:44:57;;;;;;;;;17.75;16.75;;;;;21.53;62.85;101755.59;4881851;29;45473;-84
2021/07/20 04:47:23;;;;;;;;;19.75;17.75;;;;;21.59;62.61;101766.75;4883029;29;45257;-80
2021/07/20 04:49:49;;;;;;;;;20.25;20.00;;;;;21.68;62.39;101767.13;4883450;29;45407;-77
2021/07/20 04:52:16;;;;;;;;;21.50;19.50;;;;;21.73;62.14;101764.97;4884368;29;45372;-77
2021/07/20 04:54:43;;;;;;;;;22.25;20.00;;;;;21.75;61.84;101770.25;4882444;29;45645;-78
2021/07/20 04:57:09;;;;;;;;;24.50;21.00;;;;;21.74;61.46;101758.69;4880961;29;45565;-78
2021/07/20 04:59:34;;;;;;;;;20.50;19.75;;;;;21.77;61.21;101768.31;4873122;29;46991;-79
2021/07/20 05:01:59;;;;;;;;;24.75;20.50;;;;;21.78;61.46;101775.41;4876153;29;48007;-78
2021/07/20 05:04:27;;;;;;;;;20.50;18.50;;;;;21.79;61.48;101772.63;4875639;29;46913;-79
2021/07/20 05:06:53;;;;;;;;;22.25;20.50;;;;;21.79;61.11;101774.44;4875735;29;45702;-78
2021/07/20 05:09:19;;;;;;;;;23.00;18.75;;;;;21.79;61.26;101782.47;4875400;29;45564;-78
2021/07/20 05:11:45;;;;;;;;;22.25;20.25;;;;;21.79;61.90;101779.78;4874584;29;45996;-78
2021/07/20 05:14:11;;;;;;;;;24.50;23.25;;;;;21.74;61.15;101776.53;4874575;29;46117;-78
2021/07/20 05:16:38;;;;;;;;;30.25;23.75;;;;;21.74;61.30;101784.56;4873073;29;46060;-78
2021/07/20 05:19:04;;;;;;;;;27.00;24.00;;;;;21.76;60.82;101785.31;4875142;29;45504;-78
2021/07/20 05:21:31;;;;;;;;;25.00;21.75;;;;;21.73;61.13;101783.69;4878938;29;45992;-76
2021/07/20 05:23:58;;;;;;;;;22.75;21.00;;;;;21.77;60.45;101787.06;4883015;29;45469;-77
2021/07/20 05:26:25;;;;;;;;;28.25;24.50;;;;;21.77;60.86;101785.25;4884738;29;45523;-76
2021/07/20 05:28:52;;;;;;;;;24.25;21.25;;;;;21.79;60.53;101793.16;4885389;29;45382;-76
2021/07/20 05:31:18;;;;;;;;;24.75;23.00;;;;;21.76;61.42;101794.22;4895479;29;48319;-76
2021/07/20 05:33:44;;;;;;;;;26.25;24.50;;;;;21.75;60.72;101795.19;4883510;29;45560;-76
2021/07/20 05:36:10;;;;;;;;;33.00;25.00;;;;;21.82;61.23;101801.00;4883151;29;45413;-76
2021/07/20 05:38:38;;;;;;;;;28.75;24.25;;;;;21.87;61.27;101788.22;4878613;29;45527;-76
2021/07/20 05:41:03;;;;;;;;;28.25;24.25;;;;;21.93;60.92;101792.28;4884447;29;45357;-76
2021/07/20 05:43:30;;;;;;;;;23.50;22.25;;;;;21.98;60.30;101782.16;4883241;29;45372;-76
2021/07/20 05:46:00;;;;;;;;;25.25;23.00;;;;;22.06;60.53;101794.16;4884718;29;45237;-76
2021/07/20 05:48:25;;;;;;;;;30.25;25.25;;;;;22.08;60.16;101792.25;4885014;29;45529;-76
2021/07/20 05:50:53;;;;;;;;;22.50;21.50;;;;;22.08;59.66;101795.78;4884718;29;46476;-76
2021/07/20 05:53:22;;;;;;;;;25.25;22.50;;;;;22.11;60.39;101803.63;4884567;29;45619;-76
2021/07/20 05:55:50;;;;;;;;;25.00;22.50;;;;;22.18;60.43;101809.44;4884972;29;45232;-77
2021/07/20 05:58:18;;;;;;;;;24.00;20.75;;;;;22.23;60.59;101807.31;4892778;29;45579;-76
2021/07/20 06:00:44;;;;;;;;;28.75;24.50;;;;;22.26;60.08;101812.47;4886329;28;45530;-76
2021/07/20 06:03:17;;;;;;;;;27.75;25.25;;;;;22.29;60.23;101811.41;4883545;29;45276;-76
2021/07/20 06:05:44;;;;;;;;;36.00;29.50;;;;;22.34;59.75;101813.78;4884484;29;45348;-76
2021/07/20 06:08:15;;;;;;;;;31.00;27.75;;;;;22.33;59.00;101810.22;4883412;29;46419;-75
2021/07/20 06:10:41;;;;;;;;;23.50;21.75;;;;;22.35;59.44;101810.97;4884885;29;48482;-77
2021/07/20 06:13:07;;;;;;;;;33.00;28.00;;;;;22.40;58.79;101813.34;4883704;29;45637;-76
2021/07/20 06:15:33;;;;;;;;;30.75;27.00;;;;;22.45;59.44;101810.34;4884400;29;45497;-76
2021/07/20 06:17:59;;;;;;;;;33.50;28.00;;;;;22.49;58.16;101811.88;4886621;29;46482;-76
2021/07/20 06:20:24;;;;;;;;;26.25;25.75;;;;;22.54;58.83;101808.91;4884602;29;45731;-76
2021/07/20 06:22:52;;;;;;;;;33.75;26.00;;;;;22.58;57.65;101815.75;4881805;29;45444;-76
2021/07/20 06:25:21;;;;;;;;;36.00;27.50;;;;;22.58;56.61;101816.63;4884201;29;45435;-76
2021/07/20 06:27:48;;;;;;;;;30.75;29.75;;;;;22.57;57.46;101816.75;4884206;29;45333;-76
2021/07/20 06:30:14;;;;;;;;;33.25;28.50;;;;;22.57;56.21;101814.06;4898774;29;47165;-76
2021/07/20 06:32:40;;;;;;;;;35.75;30.00;;;;;22.54;57.30;101820.47;4883609;29;45260;-76
2021/07/20 06:35:11;;;;;;;;;30.00;26.75;;;;;22.57;57.17;101814.91;4882385;29;45230;-76
2021/07/20 06:37:37;;;;;;;;;36.50;29.50;;;;;22.63;56.65;101816.31;4881705;29;47534;-76
2021/07/20 06:40:03;;;;;;;;;32.25;29.50;;;;;22.68;56.78;101813.31;4881396;29;47365;-76
2021/07/20 06:42:29;;;;;;;;;33.25;28.75;;;;;22.68;57.34;101811.50;4883689;29;45292;-76
2021/07/20 06:44:55;;;;;;;;;39.25;33.25;;;;;22.68;57.09;101808.81;4884446;29;45316;-76
2021/07/20 06:47:21;;;;;;;;;34.00;28.25;;;;;22.71;55.88;101813.16;4882236;29;45346;-76
2021/07/20 06:49:49;;;;;;;;;32.75;29.50;;;;;22.75;55.94;101824.50;4882758;29;45672;-76
2021/07/20 06:52:17;;;;;;;;;36.75;32.25;;;;;22.74;54.00;101815.63;4883207;29;45655;-76
2021/07/20 06:54:44;;;;;;;;;35.50;32.00;;;;;22.72;54.39;101825.56;4883547;29;45355;-76
2021/07/20 06:57:18;;;;;;;;;34.75;29.00;;;;;22.69;54.02;101823.13;4880933;29;46440;-75
2021/07/20 06:59:46;;;;;;;;;36.25;31.25;;;;;22.71;54.32;101829.22;4893669;29;47259;-75
2021/07/20 07:02:18;;;;;;;;;33.50;28.50;;;;;22.74;56.00;101831.69;4883017;29;45652;-75
2021/07/20 07:05:01;;;;;;;;;40.50;30.00;;;;;22.79;56.25;101828.72;4880265;29;46299;-75
2021/07/20 07:07:28;;;;;;;;;35.75;30.75;;;;;22.85;54.70;101832.75;4885542;29;45739;-75
2021/07/20 07:09:55;;;;;;;;;39.00;32.25;;;;;22.86;52.53;101824.63;4874968;29;46521;-75
2021/07/20 07:12:21;;;;;;;;;42.75;33.00;;;;;22.85;54.24;101828.28;4886641;29;45235;-75
2021/07/20 07:14:49;;;;;;;;;43.00;33.75;;;;;22.89;52.58;101834.28;4885939;29;45623;-75
2021/07/20 07:17:15;;;;;;;;;36.75;30.50;;;;;22.87;53.09;101826.34;4886153;29;46336;-75
2021/07/20 07:19:45;;;;;;;;;35.50;31.25;;;;;22.88;54.85;101833.44;4886859;29;45498;-75
2021/07/20 07:22:13;;;;;;;;;38.25;32.50;;;;;22.89;51.28;101840.50;4887236;29;45689;-75
2021/07/20 07:24:39;;;;;;;;;33.50;30.00;;;;;22.85;52.99;101828.28;4886478;29;45223;-75
2021/07/20 07:27:06;;;;;;;;;40.75;34.00;;;;;22.90;52.60;101839.53;4886654;29;45411;-75
2021/07/20 07:29:33;;;;;;;;;42.50;30.25;;;;;22.91;54.75;101841.28;4884922;29;48149;-75
2021/07/20 07:31:58;;;;;;;;;29.00;25.75;;;;;22.97;53.32;101845.31;4882262;29;45795;-75
2021/07/20 07:34:24;;;;;;;;;32.00;30.00;;;;;23.01;53.32;101837.94;4884162;29;46074;-75
2021/07/20 07:36:51;;;;;;;;;39.50;32.50;;;;;23.05;53.62;101839.44;4884027;29;45479;-75
2021/07/20 07:39:21;;;;;;;;;34.50;30.00;;;;;23.10;52.84;101839.97;4882814;29;45631;-78
2021/07/20 07:41:47;;;;;;;;;32.75;28.75;;;;;23.13;52.20;101839.78;4869550;29;45703;-77
2021/07/20 07:44:15;;;;;;;;;36.75;30.25;;;;;23.18;51.95;101838.59;4881405;29;45479;-78
2021/07/20 07:46:44;;;;;;;;;38.50;31.00;;;;;23.18;52.57;101842.13;4879065;29;45529;-78
2021/07/20 07:49:11;;;;;;;;;42.50;31.25;;;;;23.24;52.41;101846.19;4886587;29;45449;-78
2021/07/20 07:51:39;;;;;;;;;42.00;32.75;;;;;23.30;52.50;101850.28;4880163;29;45646;-79
2021/07/20 07:54:05;;;;;;;;;41.00;30.75;;;;;23.34;52.51;101843.72;4885581;29;46163;-78
2021/07/20 07:56:30;;;;;;;;;37.25;30.50;;;;;23.38;52.01;101839.88;4886151;29;45559;-78
2021/07/20 07:58:59;;;;;;;;;40.25;32.00;;;;;23.44;52.21;101843.94;4886544;29;45413;-78
2021/07/20 08:01:25;;;;;;;;;36.25;28.00;;;;;23.47;51.96;101843.72;4886291;29;45384;-77
2021/07/20 08:03:54;;;;;;;;;35.50;32.00;;;;;23.52;51.51;101841.59;4885338;29;45390;-76
2021/07/20 08:06:20;;;;;;;;;33.75;29.75;;;;;23.55;51.68;101840.53;4885454;29;46053;-76
2021/07/20 08:08:48;;;;;;;;;30.50;28.00;;;;;23.59;51.89;101847.38;4884416;29;46180;-76
2021/07/20 08:11:15;;;;;;;;;33.00;29.00;;;;;23.64;51.61;101841.69;4883828;29;45153;-76
2021/07/20 08:13:42;;;;;;;;;39.50;31.25;;;;;23.67;50.67;101846.84;4886431;29;45246;-76
2021/07/20 08:16:08;;;;;;;;;28.75;27.00;;;;;23.67;50.99;101838.78;4886265;29;45461;-76
2021/07/20 08:18:34;;;;;;;;;38.00;27.00;;;;;23.73;50.44;101846.38;4880760;29;45592;-74
2021/07/20 08:21:02;;;;;;;;;29.50;27.75;;;;;23.75;51.05;101849.84;4883234;29;45810;-75
2021/07/20 08:23:29;;;;;;;;;23.25;21.75;;;;;23.79;51.34;101839.72;4884466;29;45304;-75
2021/07/20 08:25:59;;;;;;;;;35.00;29.00;;;;;23.78;50.78;101830.81;4883629;29;45682;-76
2021/07/20 08:28:35;;;;;;;;;32.00;29.00;;;;;23.85;50.80;101833.91;4883603;29;47384;-75
2021/07/20 08:31:02;;;;;;;;;29.50;25.75;;;;;23.90;50.75;101833.59;4886120;29;45313;-75
2021/07/20 08:33:32;;;;;;;;;32.00;27.25;;;;;23.94;50.92;101829.69;4883321;29;45279;-75
2021/07/20 08:36:02;;;;;;;;;37.25;29.25;;;;;23.96;50.99;101829.56;4885853;29;45260;-75
2021/07/20 08:38:30;;;;;;;;;32.50;27.25;;;;;23.99;50.69;101827.53;4885127;29;46609;-76
2021/07/20 08:40:59;;;;;;;;;28.00;22.00;;;;;24.02;50.21;101835.38;4883767;29;45356;-76
2021/07/20 08:43:43;;;;;;;;;32.25;27.50;;;;;24.05;50.65;101832.44;4885744;29;45457;-76
2021/07/20 08:47:03;;;;;;;;;30.25;26.75;;;;;24.09;50.71;101832.22;4885744;29;45530;-76
2021/07/20 08:49:31;;;;;;;;;28.75;28.75;;;;;24.11;51.02;101839.19;4884351;29;45380;-77
2021/07/20 08:52:03;;;;;;;;;35.50;30.25;;;;;24.15;51.13;101834.47;4883958;29;45467;-76
2021/07/20 08:54:36;;;;;;;;;31.75;25.75;;;;;24.13;50.51;101833.69;4883522;29;45982;-76
2021/07/20 08:57:04;;;;;;;;;27.75;25.50;;;;;24.22;50.61;101830.34;4884420;29;45348;-76
2021/07/20 08:59:49;;;;;;;;;26.25;24.25;;;;;24.25;50.14;101831.91;4883310;29;45486;-76
2021/07/20 09:02:26;;;;;;;;;32.75;29.25;;;;;24.27;50.13;101836.25;4884353;29;45258;-76
2021/07/20 09:05:02;;;;;;;;;33.75;30.25;;;;;24.29;50.74;101836.16;4882944;29;45517;-76
2021/07/20 09:07:38;;;;;;;;;29.50;29.50;;;;;24.32;51.10;101835.91;4885603;29;45632;-76
2021/07/20 09:10:10;;;;;;;;;38.00;30.50;;;;;24.37;50.82;101835.56;4882293;29;45669;-76
2021/07/20 09:12:39;;;;;;;;;35.50;29.25;;;;;24.39;50.77;101828.25;4887622;29;45599;-77
2021/07/20 09:15:13;;;;;;;;;25.50;22.00;;;;;24.45;50.75;101840.34;4885596;29;45356;-76
2021/07/20 09:17:53;;;;;;;;;21.50;18.75;;;;;24.47;50.36;101841.13;4885313;29;45369;-76
2021/07/20 09:20:26;;;;;;;;;24.00;22.25;;;;;24.47;50.82;101841.94;4884843;29;46389;-76
2021/07/20 09:22:57;;;;;;;;;23.00;21.00;;;;;24.51;50.91;101837.22;4884209;29;45222;-77
2021/07/20 09:25:30;;;;;;;;;30.75;22.75;;;;;24.56;50.96;101842.22;4883867;29;45271;-77
2021/07/20 09:28:34;;;;;;;;;21.75;21.00;;;;;24.60;51.29;101843.69;4890953;28;46725;-77
2021/07/20 09:31:06;;;;;;;;;23.75;20.25;;;;;24.66;50.74;101850.44;4868257;29;47366;-77
2021/07/20 09:34:08;;;;;;;;;24.50;19.00;;;;;24.69;50.82;101844.84;4885294;29;45240;-77
2021/07/20 09:36:47;;;;;;;;;27.75;21.50;;;;;24.70;50.99;101841.16;4885147;29;45255;-77
2021/07/20 09:39:15;;;;;;;;;25.50;19.00;;;;;24.73;50.93;101843.63;4870093;29;46981;-77
2021/07/20 09:41:51;;;;;;;;;23.75;21.00;;;;;24.79;50.67;101845.00;4883205;29;48136;-77
2021/07/20 09:44:36;;;;;;;;;22.50;20.50;;;;;24.81;50.40;101837.66;4884876;29;45352;-77
2021/07/20 09:47:25;;;;;;;;;23.00;18.75;;;;;24.85;50.81;101839.13;4883542;29;45433;-77
2021/07/20 09:50:15;;;;;;;;;25.75;22.75;;;;;24.89;50.82;101834.41;4880826;29;45391;-78
2021/07/20 09:52:57;;;;;;;;;24.50;21.75;;;;;24.89;50.93;101832.53;4882121;29;45580;-77
2021/07/20 09:55:52;;;;;;;;;21.25;20.25;;;;;24.94;50.54;101835.72;4883989;29;45657;-77
2021/07/20 09:58:42;;;;;;;;;23.00;19.75;;;;;24.98;50.63;101835.50;4884077;29;45549;-77
2021/07/20 10:01:17;;;;;;;;;22.75;19.75;;;;;25.01;50.86;101835.28;4880869;29;45458;-77
2021/07/20 10:03:53;;;;;;;;;21.00;17.25;;;;;25.03;50.75;101831.50;4883686;29;45703;-77
2021/07/20 10:06:43;;;;;;;;;21.50;21.25;;;;;25.07;50.71;101832.13;4892185;29;45377;-77
2021/07/20 10:09:30;;;;;;;;;21.50;17.25;;;;;25.10;50.42;101826.50;4883181;29;45804;-76
2021/07/20 10:12:37;;;;;;;;;20.75;18.00;;;;;25.11;50.60;101833.59;4882044;29;45790;-76
2021/07/20 10:15:06;;;;;;;;;20.50;17.00;;;;;25.11;50.96;101822.84;4881486;29;45397;-76
2021/07/20 10:17:39;;;;;;;;;18.00;17.25;;;;;25.15;50.09;101831.53;4883243;29;45607;-76
2021/07/20 10:20:21;;;;;;;;;21.00;17.25;;;;;25.15;49.69;101827.00;4880516;29;45371;-76
2021/07/20 10:22:56;;;;;;;;;14.75;14.75;;;;;25.18;49.12;101823.22;4883593;29;45370;-76
2021/07/20 10:25:24;;;;;;;;;24.50;21.25;;;;;25.21;49.40;101822.94;4883981;29;45725;-76
2021/07/20 10:28:03;;;;;;;;;23.00;19.75;;;;;25.24;49.45;101819.16;4883614;29;45504;-76
2021/07/20 10:30:34;;;;;;;;;25.50;19.00;;;;;25.24;49.20;101817.34;4882857;29;45447;-76
2021/07/20 10:33:21;;;;;;;;;20.00;18.75;;;;;25.26;48.75;101811.84;4882855;29;47405;-76
2021/07/20 10:35:56;;;;;;;;;18.75;18.00;;;;;25.28;48.95;101801.81;4876074;29;46456;-76
2021/07/20 10:38:45;;;;;;;;;20.50;16.75;;;;;25.31;48.80;101812.31;4884162;29;45471;-76
2021/07/20 10:41:16;;;;;;;;;19.75;16.25;;;;;25.34;49.37;101811.22;4881748;29;45434;-76
2021/07/20 10:44:04;;;;;;;;;25.50;20.50;;;;;25.36;48.90;101799.34;4883376;29;45415;-76
2021/07/20 10:46:33;;;;;;;;;20.25;18.50;;;;;25.43;49.21;101809.63;4870909;29;45514;-76
2021/07/20 10:49:25;;;;;;;;;21.25;18.50;;;;;25.45;48.84;101805.00;4884173;29;45386;-76
2021/07/20 10:52:01;;;;;;;;;19.50;18.50;;;;;25.47;48.52;101811.97;4882571;29;45149;-76
2021/07/20 10:54:30;;;;;;;;;24.50;22.00;;;;;25.47;48.44;101803.03;4883336;29;45466;-76
2021/07/20 10:57:00;;;;;;;;;22.25;20.00;;;;;25.49;49.10;101795.69;4882515;29;47148;-76
2021/07/20 10:59:32;;;;;;;;;22.50;19.50;;;;;25.49;48.51;101798.38;4882899;29;45249;-77
2021/07/20 11:02:13;;;;;;;;;26.75;22.00;;;;;25.50;48.76;101795.56;4884167;29;45257;-77
2021/07/20 11:04:59;;;;;;;;;17.25;16.50;;;;;25.53;48.29;101794.47;4883743;29;45394;-76
2021/07/20 11:07:29;;;;;;;;;21.25;19.25;;;;;25.53;49.54;101793.63;4883565;29;46534;-76
2021/07/20 11:10:01;;;;;;;;;20.50;18.50;;;;;25.54;48.60;101795.31;4881491;29;45551;-76
2021/07/20 11:12:29;;;;;;;;;28.50;23.75;;;;;25.55;47.96;101794.34;4883056;29;45475;-76
2021/07/20 11:14:57;;;;;;;;;24.50;21.25;;;;;25.53;49.15;101785.53;4880566;29;45652;-76
2021/07/20 11:17:24;;;;;;;;;27.00;24.50;;;;;25.59;48.17;101793.97;4883599;29;45452;-76
2021/07/20 11:19:52;;;;;;;;;22.50;22.00;;;;;25.64;48.29;101793.59;4885915;29;45275;-76
2021/07/20 11:22:18;;;;;;;;;22.75;21.00;;;;;25.68;48.13;101780.75;4890995;28;46088;-76
2021/07/20 11:24:45;;;;;;;;;24.75;24.00;;;;;25.69;47.64;101786.00;4883022;29;45404;-76
2021/07/20 11:27:13;;;;;;;;;25.25;23.00;;;;;25.73;48.02;101789.34;4882603;29;46563;-76
2021/07/20 11:29:40;;;;;;;;;21.75;21.75;;;;;25.78;47.85;101786.25;4881707;29;45429;-76
2021/07/20 11:32:07;;;;;;;;;23.25;19.00;;;;;25.78;48.93;101775.50;4883394;29;46315;-76
2021/07/20 11:34:36;;;;;;;;;24.25;20.75;;;;;25.81;48.04;101783.28;4881233;29;45398;-76
2021/07/20 11:37:07;;;;;;;;;27.50;21.50;;;;;25.81;47.64;101786.84;4883484;29;46206;-76
2021/07/20 11:39:39;;;;;;;;;32.00;24.00;;;;;25.83;48.15;101784.88;4883152;29;45225;-76
2021/07/20 11:42:13;;;;;;;;;25.00;19.25;;;;;25.84;48.54;101789.28;4881256;29;45751;-77
2021/07/20 11:44:50;;;;;;;;;25.00;21.50;;;;;25.84;48.18;101780.34;4881417;29;45411;-77
2021/07/20 11:47:34;;;;;;;;;30.00;27.75;;;;;25.87;48.51;101780.09;4881551;29;46503;-76
2021/07/20 11:50:19;;;;;;;;;23.75;21.75;;;;;25.88;48.93;101776.41;4879384;29;45355;-77
2021/07/20 11:52:44;;;;;;;;;24.50;22.50;;;;;25.92;47.78;101771.66;4879088;29;45271;-77
2021/07/20 11:55:30;;;;;;;;;23.00;21.75;;;;;25.95;47.74;101766.00;4889908;29;45335;-77
2021/07/20 11:58:21;;;;;;;;;21.25;21.25;;;;;26.00;47.22;101771.00;4874750;29;45403;-77
2021/07/20 12:01:09;;;;;;;;;26.00;22.25;;;;;26.05;46.83;101769.63;4880384;29;45495;-77
2021/07/20 12:03:48;;;;;;;;;27.75;19.75;;;;;26.07;46.67;101770.38;4887734;29;45367;-77
2021/07/20 12:06:47;;;;;;;;;26.75;24.75;;;;;26.14;45.99;101769.84;4884912;29;47229;-77
2021/07/20 12:09:26;;;;;;;;;23.50;21.00;;;;;26.16;47.20;101768.75;4886248;29;46450;-77
2021/07/20 12:11:56;;;;;;;;;28.50;23.50;;;;;26.19;47.78;101773.00;4885857;29;45527;-77
2021/07/20 12:14:22;;;;;;;;;22.00;20.00;;;;;26.25;47.14;101764.41;4886406;29;45435;-77
2021/07/20 12:16:47;;;;;;;;;22.75;19.50;;;;;26.33;46.63;101768.28;4886206;29;45263;-77
2021/07/20 12:19:24;;;;;;;;;20.25;20.00;;;;;26.35;46.43;101766.34;4886360;29;45362;-77
2021/07/20 12:21:51;;;;;;;;;28.50;21.50;;;;;26.40;46.34;101761.38;4885621;29;45714;-77
2021/07/20 12:24:18;;;;;;;;;26.00;21.25;;;;;26.41;46.66;101760.41;4884989;29;45435;-77
2021/07/20 12:26:44;;;;;;;;;25.75;22.25;;;;;26.47;46.70;101762.59;4881769;29;46813;-77
2021/07/20 12:29:11;;;;;;;;;27.75;20.50;;;;;26.52;46.40;101762.22;4884806;29;45509;-76
2021/07/20 12:31:39;;;;;;;;;23.25;18.25;;;;;26.56;46.88;101757.41;4885908;29;45727;-76
2021/07/20 12:34:06;;;;;;;;;23.00;19.25;;;;;26.55;45.93;101759.25;4886184;29;45303;-77
2021/07/20 12:36:32;;;;;;;;;25.75;22.25;;;;;26.57;45.25;101756.44;4885464;29;45425;-77
2021/07/20 12:39:17;;;;;;;;;21.25;18.00;;;;;26.58;45.21;101753.59;4877668;29;48066;-77
2021/07/20 12:41:48;;;;;;;;;37.25;28.00;;;;;26.58;44.99;101747.34;4884071;29;45704;-77
2021/07/20 12:44:17;;;;;;;;;20.00;17.50;;;;;26.63;45.45;101742.41;4885826;29;45470;-77
2021/07/20 12:46:43;;;;;;;;;24.25;19.25;;;;;26.64;44.86;101744.13;4885625;29;45444;-77
2021/07/20 12:49:13;;;;;;;;;25.00;18.00;;;;;26.67;44.65;101741.16;4884478;29;46414;-77
2021/07/20 12:51:54;;;;;;;;;17.75;17.75;;;;;26.71;43.87;101752.53;4878241;29;45373;-76
2021/07/20 12:54:43;;;;;;;;;19.50;19.25;;;;;26.73;43.95;101740.63;4886023;29;45327;-77
2021/07/20 12:57:13;;;;;;;;;23.50;18.00;;;;;26.77;44.28;101748.47;4884125;29;45998;-77
2021/07/20 12:59:39;;;;;;;;;19.00;17.25;;;;;26.78;45.15;101745.63;4885572;29;46561;-77
2021/07/20 13:02:11;;;;;;;;;24.25;19.00;;;;;26.80;44.05;101737.38;4885174;29;45434;-77
2021/07/20 13:04:36;;;;;;;;;21.00;18.25;;;;;26.82;44.56;101733.56;4882720;29;45280;-77
2021/07/20 13:07:02;;;;;;;;;44.25;32.50;;;;;26.83;44.74;101732.59;4885364;29;45519;-77
2021/07/20 13:09:27;;;;;;;;;24.00;20.00;;;;;26.91;44.58;101736.47;4885554;29;45560;-77
2021/07/20 13:11:54;;;;;;;;;19.00;17.00;;;;;26.94;44.68;101738.91;4884575;29;45293;-77
2021/07/20 13:14:21;;;;;;;;;19.25;17.00;;;;;26.97;45.30;101727.81;4883338;29;45481;-77
2021/07/20 13:16:47;;;;;;;;;20.75;16.75;;;;;26.96;44.71;101737.78;4884557;29;45494;-77
2021/07/20 13:19:15;;;;;;;;;15.25;13.75;;;;;27.00;44.20;101742.88;4885053;29;45728;-77
2021/07/20 13:21:46;;;;;;;;;15.75;15.00;;;;;27.01;43.66;101733.81;4884825;29;45354;-77
2021/07/20 13:24:11;;;;;;;;;23.75;18.50;;;;;27.02;43.62;101736.34;4885455;29;45387;-77
2021/07/20 13:26:37;;;;;;;;;18.00;14.75;;;;;27.05;44.16;101746.03;4884958;29;45313;-76
2021/07/20 13:29:08;;;;;;;;;20.75;17.00;;;;;27.07;43.28;101746.72;4884858;29;46480;-76
2021/07/20 13:31:38;;;;;;;;;17.50;16.50;;;;;27.08;43.65;101749.31;4883896;29;45584;-76
2021/07/20 13:34:05;;;;;;;;;19.25;16.25;;;;;27.11;43.46;101740.09;4884806;29;45312;-76
2021/07/20 13:36:34;;;;;;;;;24.25;18.75;;;;;27.11;44.61;101728.44;4885095;29;45504;-76
2021/07/20 13:39:03;;;;;;;;;17.50;17.25;;;;;27.11;43.08;101732.00;4883405;29;46784;-76
2021/07/20 13:41:29;;;;;;;;;14.50;12.50;;;;;27.13;44.75;101738.16;4885060;29;45393;-76
2021/07/20 13:43:57;;;;;;;;;14.75;13.75;;;;;27.14;43.99;101722.81;4883605;29;45451;-76
2021/07/20 13:46:26;;;;;;;;;12.25;12.00;;;;;27.15;43.43;101738.00;4884960;29;45411;-76
2021/07/20 13:48:54;;;;;;;;;16.00;15.00;;;;;27.19;43.97;101729.50;4885065;29;45518;-76
2021/07/20 13:51:24;;;;;;;;;14.25;13.25;;;;;27.19;43.58;101720.53;4884813;29;45636;-76
2021/07/20 13:53:55;;;;;;;;;13.25;11.00;;;;;27.24;42.45;101722.81;4885116;29;45262;-76
2021/07/20 13:56:41;;;;;;;;;17.50;15.25;;;;;27.24;43.72;101718.28;4884817;29;45668;-76
2021/07/20 13:59:10;;;;;;;;;15.00;14.25;;;;;27.26;43.65;101718.16;4883613;29;48597;-76
2021/07/20 14:01:43;;;;;;;;;15.00;13.25;;;;;27.29;43.42;101720.56;4885048;29;45218;-76
2021/07/20 14:04:10;;;;;;;;;8.25;8.25;;;;;27.33;42.41;101719.31;4884699;29;45313;-76
2021/07/20 14:06:40;;;;;;;;;14.50;13.50;;;;;27.41;42.56;101719.47;4884762;29;45220;-76
2021/07/20 14:09:09;;;;;;;;;12.00;11.75;;;;;27.45;41.73;101711.94;4884892;29;46330;-76
2021/07/20 14:11:34;;;;;;;;;13.75;13.75;;;;;27.50;41.79;101716.94;4884176;29;45717;-76
2021/07/20 14:14:01;;;;;;;;;13.75;11.00;;;;;27.50;43.48;101720.47;4883532;29;45316;-76
2021/07/20 14:16:28;;;;;;;;;14.50;12.50;;;;;27.50;42.27;101717.78;4883106;29;45526;-76
2021/07/20 14:18:55;;;;;;;;;15.50;12.50;;;;;27.55;42.11;101720.06;4884478;29;45370;-76
2021/07/20 14:21:26;;;;;;;;;12.00;12.00;;;;;27.56;42.57;101724.44;4884600;29;45373;-76
2021/07/20 14:23:59;;;;;;;;;15.75;11.75;;;;;27.54;42.31;101718.34;4884440;29;45375;-76
2021/07/20 14:26:26;;;;;;;;;12.25;11.00;;;;;27.56;42.00;101727.16;4884076;29;45173;-76
2021/07/20 14:28:53;;;;;;;;;16.50;12.50;;;;;27.57;42.27;101723.47;4884603;29;45370;-76
2021/07/20 14:31:19;;;;;;;;;13.25;12.75;;;;;27.57;42.10;101722.63;4884028;29;45279;-76
2021/07/20 14:33:44;;;;;;;;;15.25;12.25;;;;;27.59;42.32;101709.81;4884451;29;45243;-76
2021/07/20 14:36:35;;;;;;;;;11.50;10.00;;;;;27.60;41.80;101717.81;4883214;29;47186;-76
2021/07/20 14:39:02;;;;;;;;;13.00;12.25;;;;;27.63;41.98;101720.19;4884023;29;45658;-76
2021/07/20 14:41:27;;;;;;;;;15.50;13.25;;;;;27.62;42.62;101712.25;4883995;29;45512;-76
2021/07/20 14:43:59;;;;;;;;;15.00;11.00;;;;;27.66;41.49;101716.38;4884147;29;45491;-76
2021/07/20 14:46:40;;;;;;;;;14.75;13.50;;;;;27.68;43.41;101700.88;4884389;29;45264;-76
2021/07/20 14:49:05;;;;;;;;;12.25;10.00;;;;;27.67;42.85;101698.31;4883988;29;46633;-76
2021/07/20 14:51:34;;;;;;;;;9.25;8.50;;;;;27.64;41.83;101700.31;4883933;29;45305;-76
2021/07/20 14:54:00;;;;;;;;;13.25;13.00;;;;;27.68;41.34;101702.75;4884496;29;45317;-76
2021/07/20 14:56:26;;;;;;;;;15.00;11.75;;;;;27.71;41.29;101697.03;4883247;29;45729;-76
2021/07/20 14:58:54;;;;;;;;;12.25;11.25;;;;;27.73;41.43;101700.47;4884144;29;45303;-76
2021/07/20 15:01:23;;;;;;;;;17.00;12.75;;;;;27.76;41.36;101702.88;4883977;29;45607;-76
2021/07/20 15:03:55;;;;;;;;;13.00;12.50;;;;;27.77;42.42;101712.69;4882923;29;45366;-76
2021/07/20 15:06:24;;;;;;;;;16.50;13.50;;;;;27.75;42.74;101703.88;4883611;29;45520;-76
2021/07/20 15:08:52;;;;;;;;;13.75;12.00;;;;;27.72;42.68;101707.72;4884029;29;46046;-76
2021/07/20 15:11:26;;;;;;;;;17.75;12.50;;;;;27.71;42.48;101706.00;4898266;29;45315;-76
2021/07/20 15:14:00;;;;;;;;;17.75;15.50;;;;;27.73;42.48;101695.91;4884269;29;45456;-76
2021/07/20 15:16:31;;;;;;;;;14.00;13.00;;;;;27.72;42.78;101690.66;4883630;29;45549;-76
2021/07/20 15:19:00;;;;;;;;;13.50;12.50;;;;;27.73;42.08;101695.91;4884012;29;45421;-76
2021/07/20 15:21:30;;;;;;;;;15.50;13.25;;;;;27.74;42.38;101696.75;4883800;29;45566;-76
2021/07/20 15:23:56;;;;;;;;;15.00;12.50;;;;;27.72;41.53;101688.81;4884109;29;45245;-76